LFKB/BIA METAR and TAF weather

Enter ICAO airport designator
Station Type Date Time Source
LFKB METAR 2019/12/06 02:00 UTC NOAA

LFKB 060200Z AUTO 21004KT 9999 FEW090/// ///CB 11/09 Q1022


Station Type Date Time Source
LFKB Decoded METAR 2019/12/06 02:00 UTC NOAA

Bastia, France (LFKB) 42-33N 009-29E 12M
Dec 05, 2019 - 09:00 PM EST / 2019.12.06 0200 UTC
Wind: from the SSW (210 degrees) at 5 MPH (4 KT):0
Visibility: greater than 7 mile(s):0
Sky conditions: mostly clear
Weather: Cumulonimbus clouds observed
Temperature: 51 F (11 C)
Dew Point: 48 F (9 C)
Relative Humidity: 87%
Pressure (altimeter): 30.18 in. Hg (1022 hPa)
ob: LFKB 060200Z AUTO 21004KT 9999 FEW090/// ///CB 11/09 Q1022
cycle: 2

Station Type Date Time Source
LFKB TAF 2019/12/05 06:54 UTC NOAA

TAF TAF LFKB 050650Z 0506/0603 CNL

Example: see airport list